Terminal Aerodrome Forecast
Issued by NWS

Home | Current Version | Previous Version | Text Only | Print | Product List | Glossary Off
Versions: 1 2 3 4 5 6 7 8 9 10 11 12 13 14 15 16 17 18 19 20 21 22 23 24 25 26 27

812
FTUS43 KLOT 180530
TAFORD
TAF
KORD 180530Z 1806/1912 21008KT 3SM -DZ BR SCT005 OVC007
      TEMPO 1806/1808 2SM BR BKN005
     FM180800 28004KT 1SM -DZ BR OVC004
     FM181200 35008KT 2SM -RADZ BR OVC004
     FM181500 36016G27KT 2SM RA BR BKN005 OVC015
     FM182000 34019G30KT 4SM -RA OVC025
     FM182200 33018G28KT P6SM BKN025
     FM190600 32013G20KT P6SM SCT025=

USA.gov is the U.S. government's official web portal to all federal, state and local government web resources and services.